sensor_id;sensor_type;location;lat;lon;timestamp;P1;durP1;ratioP1;P2;durP2;ratioP2
25341;SDS011;13298;48.792;9.154;2023-05-24T00:01:36;5.80;;;2.50;;
25341;SDS011;13298;48.792;9.154;2023-05-24T00:04:02;4.22;;;2.60;;
25341;SDS011;13298;48.792;9.154;2023-05-24T00:06:28;5.00;;;2.90;;
25341;SDS011;13298;48.792;9.154;2023-05-24T00:08:54;4.93;;;2.83;;
25341;SDS011;13298;48.792;9.154;2023-05-24T00:11:20;5.43;;;2.90;;
25341;SDS011;13298;48.792;9.154;2023-05-24T00:13:47;6.97;;;3.00;;
25341;SDS011;13298;48.792;9.154;2023-05-24T00:16:13;6.30;;;3.10;;
25341;SDS011;13298;48.792;9.154;2023-05-24T00:18:39;4.95;;;2.63;;
25341;SDS011;13298;48.792;9.154;2023-05-24T00:21:06;7.32;;;2.55;;
25341;SDS011;13298;48.792;9.154;2023-05-24T00:23:32;4.30;;;2.72;;
25341;SDS011;13298;48.792;9.154;2023-05-24T00:25:58;5.97;;;2.75;;
25341;SDS011;13298;48.792;9.154;2023-05-24T00:28:25;4.35;;;3.00;;
25341;SDS011;13298;48.792;9.154;2023-05-24T00:30:51;5.80;;;3.03;;
25341;SDS011;13298;48.792;9.154;2023-05-24T00:33:17;6.65;;;2.75;;
25341;SDS011;13298;48.792;9.154;2023-05-24T00:35:43;7.85;;;3.35;;
25341;SDS011;13298;48.792;9.154;2023-05-24T00:38:09;3.05;;;2.75;;
25341;SDS011;13298;48.792;9.154;2023-05-24T00:40:35;3.90;;;2.58;;
25341;SDS011;13298;48.792;9.154;2023-05-24T00:43:00;4.57;;;2.83;;
25341;SDS011;13298;48.792;9.154;2023-05-24T00:45:26;3.63;;;2.53;;
25341;SDS011;13298;48.792;9.154;2023-05-24T00:47:52;5.45;;;2.78;;
25341;SDS011;13298;48.792;9.154;2023-05-24T00:50:18;6.25;;;2.90;;
25341;SDS011;13298;48.792;9.154;2023-05-24T00:52:44;4.30;;;2.80;;
25341;SDS011;13298;48.792;9.154;2023-05-24T00:55:13;3.33;;;2.47;;
25341;SDS011;13298;48.792;9.154;2023-05-24T00:57:39;5.25;;;2.70;;
25341;SDS011;13298;48.792;9.154;2023-05-24T01:00:05;3.92;;;2.70;;
25341;SDS011;13298;48.792;9.154;2023-05-24T01:02:32;5.45;;;2.88;;
25341;SDS011;13298;48.792;9.154;2023-05-24T01:04:58;9.13;;;3.25;;
25341;SDS011;13298;48.792;9.154;2023-05-24T01:07:35;5.65;;;3.00;;
25341;SDS011;13298;48.792;9.154;2023-05-24T01:15:58;5.43;;;2.70;;
25341;SDS011;13298;48.792;9.154;2023-05-24T01:18:38;6.78;;;3.13;;
25341;SDS011;13298;48.792;9.154;2023-05-24T01:27:08;9.88;;;3.13;;
25341;SDS011;13298;48.792;9.154;2023-05-24T01:29:37;7.00;;;2.92;;
25341;SDS011;13298;48.792;9.154;2023-05-24T01:32:03;6.72;;;2.90;;
25341;SDS011;13298;48.792;9.154;2023-05-24T01:34:29;4.72;;;2.63;;
25341;SDS011;13298;48.792;9.154;2023-05-24T01:36:55;4.43;;;2.35;;
25341;SDS011;13298;48.792;9.154;2023-05-24T01:39:21;5.68;;;2.88;;
25341;SDS011;13298;48.792;9.154;2023-05-24T01:41:56;6.18;;;2.70;;
25341;SDS011;13298;48.792;9.154;2023-05-24T01:44:43;5.65;;;2.85;;
25341;SDS011;13298;48.792;9.154;2023-05-24T01:49:56;8.57;;;2.70;;
25341;SDS011;13298;48.792;9.154;2023-05-24T01:52:28;6.00;;;2.90;;
25341;SDS011;13298;48.792;9.154;2023-05-24T01:54:57;5.43;;;2.88;;
25341;SDS011;13298;48.792;9.154;2023-05-24T01:57:27;7.13;;;2.65;;
25341;SDS011;13298;48.792;9.154;2023-05-24T01:59:54;9.57;;;2.88;;
25341;SDS011;13298;48.792;9.154;2023-05-24T02:02:21;7.32;;;3.10;;
25341;SDS011;13298;48.792;9.154;2023-05-24T02:04:47;6.20;;;2.60;;
25341;SDS011;13298;48.792;9.154;2023-05-24T02:07:13;7.35;;;3.17;;
25341;SDS011;13298;48.792;9.154;2023-05-24T02:09:38;7.45;;;3.03;;
25341;SDS011;13298;48.792;9.154;2023-05-24T02:12:04;5.35;;;2.47;;
25341;SDS011;13298;48.792;9.154;2023-05-24T02:14:30;7.47;;;3.03;;
25341;SDS011;13298;48.792;9.154;2023-05-24T02:16:56;8.38;;;2.90;;
25341;SDS011;13298;48.792;9.154;2023-05-24T02:19:23;6.05;;;3.08;;
25341;SDS011;13298;48.792;9.154;2023-05-24T02:21:49;4.25;;;2.60;;
25341;SDS011;13298;48.792;9.154;2023-05-24T02:24:15;5.32;;;2.70;;
25341;SDS011;13298;48.792;9.154;2023-05-24T02:26:42;3.97;;;2.53;;
25341;SDS011;13298;48.792;9.154;2023-05-24T02:29:08;7.60;;;3.20;;
25341;SDS011;13298;48.792;9.154;2023-05-24T02:31:34;6.15;;;2.97;;
25341;SDS011;13298;48.792;9.154;2023-05-24T02:33:59;11.70;;;3.85;;
25341;SDS011;13298;48.792;9.154;2023-05-24T02:36:25;10.00;;;3.38;;
25341;SDS011;13298;48.792;9.154;2023-05-24T02:38:51;7.38;;;3.00;;
25341;SDS011;13298;48.792;9.154;2023-05-24T02:41:17;11.32;;;2.97;;
25341;SDS011;13298;48.792;9.154;2023-05-24T02:43:46;11.20;;;3.63;;
25341;SDS011;13298;48.792;9.154;2023-05-24T02:46:13;8.50;;;3.28;;
25341;SDS011;13298;48.792;9.154;2023-05-24T02:48:38;9.10;;;2.83;;
25341;SDS011;13298;48.792;9.154;2023-05-24T02:51:04;12.05;;;3.58;;
25341;SDS011;13298;48.792;9.154;2023-05-24T02:53:30;9.27;;;3.15;;
25341;SDS011;13298;48.792;9.154;2023-05-24T02:55:57;13.98;;;3.70;;
25341;SDS011;13298;48.792;9.154;2023-05-24T02:58:23;11.70;;;3.45;;
25341;SDS011;13298;48.792;9.154;2023-05-24T03:00:53;7.70;;;3.35;;
25341;SDS011;13298;48.792;9.154;2023-05-24T03:03:18;6.60;;;3.15;;
25341;SDS011;13298;48.792;9.154;2023-05-24T03:05:44;7.15;;;3.22;;
25341;SDS011;13298;48.792;9.154;2023-05-24T03:08:10;12.50;;;3.63;;
25341;SDS011;13298;48.792;9.154;2023-05-24T03:10:36;11.73;;;3.40;;
25341;SDS011;13298;48.792;9.154;2023-05-24T03:13:01;8.07;;;2.92;;
25341;SDS011;13298;48.792;9.154;2023-05-24T03:15:27;6.32;;;3.20;;
25341;SDS011;13298;48.792;9.154;2023-05-24T03:17:53;10.38;;;3.28;;
25341;SDS011;13298;48.792;9.154;2023-05-24T03:20:18;10.55;;;3.20;;
25341;SDS011;13298;48.792;9.154;2023-05-24T03:22:45;7.93;;;3.90;;
25341;SDS011;13298;48.792;9.154;2023-05-24T03:25:10;9.82;;;3.33;;
25341;SDS011;13298;48.792;9.154;2023-05-24T03:27:36;11.13;;;3.50;;
25341;SDS011;13298;48.792;9.154;2023-05-24T03:30:03;8.02;;;3.08;;
25341;SDS011;13298;48.792;9.154;2023-05-24T03:32:30;8.50;;;3.08;;
25341;SDS011;13298;48.792;9.154;2023-05-24T03:34:57;11.48;;;3.58;;
25341;SDS011;13298;48.792;9.154;2023-05-24T03:37:25;10.20;;;3.90;;
25341;SDS011;13298;48.792;9.154;2023-05-24T03:39:51;6.95;;;3.75;;
25341;SDS011;13298;48.792;9.154;2023-05-24T03:42:16;9.38;;;3.03;;
25341;SDS011;13298;48.792;9.154;2023-05-24T03:44:42;9.85;;;3.83;;
25341;SDS011;13298;48.792;9.154;2023-05-24T03:47:08;8.38;;;3.53;;
25341;SDS011;13298;48.792;9.154;2023-05-24T03:49:33;6.93;;;3.15;;
25341;SDS011;13298;48.792;9.154;2023-05-24T03:51:59;11.90;;;3.40;;
25341;SDS011;13298;48.792;9.154;2023-05-24T03:54:25;8.57;;;3.08;;
25341;SDS011;13298;48.792;9.154;2023-05-24T03:56:51;6.82;;;2.97;;
25341;SDS011;13298;48.792;9.154;2023-05-24T03:59:17;5.63;;;2.85;;
25341;SDS011;13298;48.792;9.154;2023-05-24T04:01:43;11.70;;;3.55;;
25341;SDS011;13298;48.792;9.154;2023-05-24T04:04:09;11.15;;;3.67;;
25341;SDS011;13298;48.792;9.154;2023-05-24T04:06:35;10.55;;;3.25;;
25341;SDS011;13298;48.792;9.154;2023-05-24T04:09:02;10.23;;;3.50;;
25341;SDS011;13298;48.792;9.154;2023-05-24T04:11:29;9.23;;;3.35;;
25341;SDS011;13298;48.792;9.154;2023-05-24T04:13:56;9.77;;;3.78;;
25341;SDS011;13298;48.792;9.154;2023-05-24T04:16:25;8.40;;;3.08;;
25341;SDS011;13298;48.792;9.154;2023-05-24T04:18:51;5.63;;;3.08;;
25341;SDS011;13298;48.792;9.154;2023-05-24T04:21:18;6.97;;;3.30;;
25341;SDS011;13298;48.792;9.154;2023-05-24T04:23:44;8.73;;;3.20;;
25341;SDS011;13298;48.792;9.154;2023-05-24T04:26:10;8.07;;;3.20;;
25341;SDS011;13298;48.792;9.154;2023-05-24T04:28:37;7.82;;;3.25;;
25341;SDS011;13298;48.792;9.154;2023-05-24T04:31:04;6.85;;;2.95;;
25341;SDS011;13298;48.792;9.154;2023-05-24T04:33:31;8.18;;;3.22;;
25341;SDS011;13298;48.792;9.154;2023-05-24T04:35:57;7.43;;;3.38;;
25341;SDS011;13298;48.792;9.154;2023-05-24T04:38:25;11.18;;;3.45;;
25341;SDS011;13298;48.792;9.154;2023-05-24T04:40:54;9.30;;;3.35;;
25341;SDS011;13298;48.792;9.154;2023-05-24T04:43:23;10.07;;;3.42;;
25341;SDS011;13298;48.792;9.154;2023-05-24T04:45:52;12.23;;;3.72;;
25341;SDS011;13298;48.792;9.154;2023-05-24T04:48:19;6.72;;;3.22;;
25341;SDS011;13298;48.792;9.154;2023-05-24T04:50:47;7.60;;;3.47;;
25341;SDS011;13298;48.792;9.154;2023-05-24T04:53:16;10.07;;;3.50;;
25341;SDS011;13298;48.792;9.154;2023-05-24T04:55:43;8.82;;;3.60;;
25341;SDS011;13298;48.792;9.154;2023-05-24T04:58:09;9.73;;;3.35;;
25341;SDS011;13298;48.792;9.154;2023-05-24T05:00:46;9.13;;;3.63;;
25341;SDS011;13298;48.792;9.154;2023-05-24T05:03:17;7.07;;;3.60;;
25341;SDS011;13298;48.792;9.154;2023-05-24T05:05:43;9.63;;;3.67;;
25341;SDS011;13298;48.792;9.154;2023-05-24T05:08:10;9.75;;;3.92;;
25341;SDS011;13298;48.792;9.154;2023-05-24T05:10:35;6.20;;;3.42;;
25341;SDS011;13298;48.792;9.154;2023-05-24T05:13:01;9.38;;;3.53;;
25341;SDS011;13298;48.792;9.154;2023-05-24T05:15:27;7.93;;;3.80;;
25341;SDS011;13298;48.792;9.154;2023-05-24T05:17:53;9.40;;;3.47;;
25341;SDS011;13298;48.792;9.154;2023-05-24T05:20:19;7.55;;;3.38;;
25341;SDS011;13298;48.792;9.154;2023-05-24T05:22:45;6.97;;;3.30;;
25341;SDS011;13298;48.792;9.154;2023-05-24T05:25:11;10.00;;;3.97;;
25341;SDS011;13298;48.792;9.154;2023-05-24T05:27:37;13.68;;;3.58;;
25341;SDS011;13298;48.792;9.154;2023-05-24T05:30:03;11.00;;;3.90;;
25341;SDS011;13298;48.792;9.154;2023-05-24T05:32:29;9.40;;;3.20;;
25341;SDS011;13298;48.792;9.154;2023-05-24T05:34:55;11.43;;;3.08;;
25341;SDS011;13298;48.792;9.154;2023-05-24T05:37:20;10.05;;;3.35;;
25341;SDS011;13298;48.792;9.154;2023-05-24T05:39:46;12.93;;;3.83;;
25341;SDS011;13298;48.792;9.154;2023-05-24T05:42:12;8.90;;;3.63;;
25341;SDS011;13298;48.792;9.154;2023-05-24T05:44:37;8.75;;;3.13;;
25341;SDS011;13298;48.792;9.154;2023-05-24T05:47:03;9.32;;;3.30;;
25341;SDS011;13298;48.792;9.154;2023-05-24T05:49:31;13.15;;;3.70;;
25341;SDS011;13298;48.792;9.154;2023-05-24T05:52:00;11.13;;;3.55;;
25341;SDS011;13298;48.792;9.154;2023-05-24T05:54:26;11.35;;;3.83;;
25341;SDS011;13298;48.792;9.154;2023-05-24T05:56:52;9.13;;;3.53;;
25341;SDS011;13298;48.792;9.154;2023-05-24T05:59:19;15.93;;;3.80;;
25341;SDS011;13298;48.792;9.154;2023-05-24T06:01:45;9.80;;;4.00;;
25341;SDS011;13298;48.792;9.154;2023-05-24T06:04:12;12.00;;;3.63;;
25341;SDS011;13298;48.792;9.154;2023-05-24T06:06:42;9.13;;;3.67;;
25341;SDS011;13298;48.792;9.154;2023-05-24T06:09:13;13.20;;;3.50;;
25341;SDS011;13298;48.792;9.154;2023-05-24T06:11:40;14.77;;;3.60;;
25341;SDS011;13298;48.792;9.154;2023-05-24T06:14:08;13.32;;;3.50;;
25341;SDS011;13298;48.792;9.154;2023-05-24T06:16:36;10.40;;;3.40;;
25341;SDS011;13298;48.792;9.154;2023-05-24T06:19:05;13.77;;;3.70;;
25341;SDS011;13298;48.792;9.154;2023-05-24T06:21:32;9.02;;;3.50;;
25341;SDS011;13298;48.792;9.154;2023-05-24T06:23:57;12.77;;;3.47;;
25341;SDS011;13298;48.792;9.154;2023-05-24T06:26:23;10.43;;;3.40;;
25341;SDS011;13298;48.792;9.154;2023-05-24T06:28:50;6.82;;;2.65;;
25341;SDS011;13298;48.792;9.154;2023-05-24T06:31:16;12.85;;;3.58;;
25341;SDS011;13298;48.792;9.154;2023-05-24T06:33:42;7.07;;;3.30;;
25341;SDS011;13298;48.792;9.154;2023-05-24T06:36:08;15.00;;;5.00;;
25341;SDS011;13298;48.792;9.154;2023-05-24T06:38:34;9.65;;;3.80;;
25341;SDS011;13298;48.792;9.154;2023-05-24T06:41:00;9.88;;;3.53;;
25341;SDS011;13298;48.792;9.154;2023-05-24T06:43:26;8.15;;;3.30;;
25341;SDS011;13298;48.792;9.154;2023-05-24T06:45:51;8.45;;;3.67;;
25341;SDS011;13298;48.792;9.154;2023-05-24T06:48:17;6.32;;;2.90;;
25341;SDS011;13298;48.792;9.154;2023-05-24T06:50:43;10.45;;;3.67;;
25341;SDS011;13298;48.792;9.154;2023-05-24T06:53:09;6.60;;;2.83;;
25341;SDS011;13298;48.792;9.154;2023-05-24T06:55:35;6.13;;;3.15;;
25341;SDS011;13298;48.792;9.154;2023-05-24T06:58:01;8.95;;;3.63;;
25341;SDS011;13298;48.792;9.154;2023-05-24T07:00:27;11.55;;;3.90;;
25341;SDS011;13298;48.792;9.154;2023-05-24T07:02:52;8.88;;;3.03;;
25341;SDS011;13298;48.792;9.154;2023-05-24T07:05:18;8.77;;;3.25;;
25341;SDS011;13298;48.792;9.154;2023-05-24T07:07:45;8.63;;;3.40;;
25341;SDS011;13298;48.792;9.154;2023-05-24T07:10:12;7.80;;;2.70;;
25341;SDS011;13298;48.792;9.154;2023-05-24T07:12:37;9.57;;;3.05;;
25341;SDS011;13298;48.792;9.154;2023-05-24T07:15:04;10.02;;;3.47;;
25341;SDS011;13298;48.792;9.154;2023-05-24T07:17:31;8.00;;;3.08;;
25341;SDS011;13298;48.792;9.154;2023-05-24T07:19:57;9.82;;;3.58;;
25341;SDS011;13298;48.792;9.154;2023-05-24T07:22:24;10.30;;;3.80;;
25341;SDS011;13298;48.792;9.154;2023-05-24T07:24:52;11.50;;;4.10;;
25341;SDS011;13298;48.792;9.154;2023-05-24T07:27:19;10.93;;;4.18;;
25341;SDS011;13298;48.792;9.154;2023-05-24T07:29:44;7.32;;;3.08;;
25341;SDS011;13298;48.792;9.154;2023-05-24T07:32:10;7.90;;;3.28;;
25341;SDS011;13298;48.792;9.154;2023-05-24T07:34:36;9.95;;;3.35;;
25341;SDS011;13298;48.792;9.154;2023-05-24T07:37:03;9.60;;;4.15;;
25341;SDS011;13298;48.792;9.154;2023-05-24T07:39:29;10.20;;;3.40;;
25341;SDS011;13298;48.792;9.154;2023-05-24T07:41:55;14.75;;;4.00;;
25341;SDS011;13298;48.792;9.154;2023-05-24T07:44:21;11.13;;;3.50;;
25341;SDS011;13298;48.792;9.154;2023-05-24T07:46:47;15.13;;;3.92;;
25341;SDS011;13298;48.792;9.154;2023-05-24T07:49:13;11.68;;;3.90;;
25341;SDS011;13298;48.792;9.154;2023-05-24T07:51:39;10.65;;;3.47;;
25341;SDS011;13298;48.792;9.154;2023-05-24T07:54:05;9.75;;;3.50;;
25341;SDS011;13298;48.792;9.154;2023-05-24T07:56:31;10.77;;;4.07;;
25341;SDS011;13298;48.792;9.154;2023-05-24T07:58:57;10.35;;;3.53;;
25341;SDS011;13298;48.792;9.154;2023-05-24T08:01:29;17.08;;;3.80;;
25341;SDS011;13298;48.792;9.154;2023-05-24T08:03:56;13.93;;;3.92;;
25341;SDS011;13298;48.792;9.154;2023-05-24T08:06:22;9.80;;;3.42;;
25341;SDS011;13298;48.792;9.154;2023-05-24T08:08:48;12.38;;;3.40;;
25341;SDS011;13298;48.792;9.154;2023-05-24T08:11:14;9.68;;;3.40;;
25341;SDS011;13298;48.792;9.154;2023-05-24T08:13:39;13.55;;;3.70;;
25341;SDS011;13298;48.792;9.154;2023-05-24T08:16:05;13.07;;;3.85;;
25341;SDS011;13298;48.792;9.154;2023-05-24T08:18:31;8.93;;;3.42;;
25341;SDS011;13298;48.792;9.154;2023-05-24T08:20:57;11.50;;;3.53;;
25341;SDS011;13298;48.792;9.154;2023-05-24T08:23:22;12.13;;;3.80;;
25341;SDS011;13298;48.792;9.154;2023-05-24T08:25:48;9.73;;;3.70;;
25341;SDS011;13298;48.792;9.154;2023-05-24T08:28:14;7.53;;;3.83;;
25341;SDS011;13298;48.792;9.154;2023-05-24T08:30:40;11.35;;;3.60;;
25341;SDS011;13298;48.792;9.154;2023-05-24T08:33:07;11.75;;;3.28;;
25341;SDS011;13298;48.792;9.154;2023-05-24T08:35:33;11.25;;;3.55;;
25341;SDS011;13298;48.792;9.154;2023-05-24T08:37:59;12.43;;;3.10;;
25341;SDS011;13298;48.792;9.154;2023-05-24T08:40:26;10.65;;;3.60;;
25341;SDS011;13298;48.792;9.154;2023-05-24T08:42:51;12.85;;;3.88;;
25341;SDS011;13298;48.792;9.154;2023-05-24T08:45:20;9.95;;;3.38;;
25341;SDS011;13298;48.792;9.154;2023-05-24T08:47:46;8.80;;;3.63;;
25341;SDS011;13298;48.792;9.154;2023-05-24T08:50:14;11.90;;;4.10;;
25341;SDS011;13298;48.792;9.154;2023-05-24T08:52:42;9.20;;;3.53;;
25341;SDS011;13298;48.792;9.154;2023-05-24T08:55:09;8.90;;;2.92;;
25341;SDS011;13298;48.792;9.154;2023-05-24T08:57:36;8.55;;;3.17;;
25341;SDS011;13298;48.792;9.154;2023-05-24T09:00:06;11.70;;;4.15;;
25341;SDS011;13298;48.792;9.154;2023-05-24T09:02:35;11.25;;;3.58;;
25341;SDS011;13298;48.792;9.154;2023-05-24T09:05:03;13.40;;;4.15;;
25341;SDS011;13298;48.792;9.154;2023-05-24T09:07:33;13.23;;;3.90;;
25341;SDS011;13298;48.792;9.154;2023-05-24T09:10:03;9.20;;;3.50;;
25341;SDS011;13298;48.792;9.154;2023-05-24T09:12:31;11.45;;;3.90;;
25341;SDS011;13298;48.792;9.154;2023-05-24T09:14:58;10.38;;;3.65;;
25341;SDS011;13298;48.792;9.154;2023-05-24T09:17:24;13.13;;;3.70;;
25341;SDS011;13298;48.792;9.154;2023-05-24T09:19:50;10.95;;;3.20;;
25341;SDS011;13298;48.792;9.154;2023-05-24T09:22:17;9.68;;;3.53;;
25341;SDS011;13298;48.792;9.154;2023-05-24T09:24:49;9.82;;;3.85;;
25341;SDS011;13298;48.792;9.154;2023-05-24T09:27:16;14.07;;;3.75;;
25341;SDS011;13298;48.792;9.154;2023-05-24T09:29:46;13.35;;;4.05;;
25341;SDS011;13298;48.792;9.154;2023-05-24T09:32:14;8.40;;;3.70;;
25341;SDS011;13298;48.792;9.154;2023-05-24T09:34:43;8.85;;;3.10;;
25341;SDS011;13298;48.792;9.154;2023-05-24T09:37:15;8.88;;;3.70;;
25341;SDS011;13298;48.792;9.154;2023-05-24T09:39:47;11.07;;;3.63;;
25341;SDS011;13298;48.792;9.154;2023-05-24T09:42:17;12.85;;;3.63;;
25341;SDS011;13298;48.792;9.154;2023-05-24T09:45:05;13.02;;;3.60;;
25341;SDS011;13298;48.792;9.154;2023-05-24T09:47:35;14.27;;;3.70;;
25341;SDS011;13298;48.792;9.154;2023-05-24T09:50:02;10.80;;;3.33;;
25341;SDS011;13298;48.792;9.154;2023-05-24T09:52:31;10.43;;;3.45;;
25341;SDS011;13298;48.792;9.154;2023-05-24T09:55:09;11.77;;;3.63;;
25341;SDS011;13298;48.792;9.154;2023-05-24T09:57:38;10.02;;;3.67;;
25341;SDS011;13298;48.792;9.154;2023-05-24T10:00:04;9.80;;;3.40;;
25341;SDS011;13298;48.792;9.154;2023-05-24T10:02:38;8.57;;;3.53;;
25341;SDS011;13298;48.792;9.154;2023-05-24T10:05:04;11.57;;;4.03;;
25341;SDS011;13298;48.792;9.154;2023-05-24T10:07:31;9.95;;;3.70;;
25341;SDS011;13298;48.792;9.154;2023-05-24T10:09:58;13.20;;;4.60;;
25341;SDS011;13298;48.792;9.154;2023-05-24T10:12:25;8.00;;;3.30;;
25341;SDS011;13298;48.792;9.154;2023-05-24T10:14:52;7.50;;;3.80;;
25341;SDS011;13298;48.792;9.154;2023-05-24T10:17:21;7.72;;;3.47;;
25341;SDS011;13298;48.792;9.154;2023-05-24T10:19:47;8.35;;;3.50;;
25341;SDS011;13298;48.792;9.154;2023-05-24T10:22:15;9.55;;;3.30;;
25341;SDS011;13298;48.792;9.154;2023-05-24T10:24:43;11.93;;;3.63;;
25341;SDS011;13298;48.792;9.154;2023-05-24T10:27:13;14.43;;;3.83;;
25341;SDS011;13298;48.792;9.154;2023-05-24T10:32:11;9.77;;;3.53;;
25341;SDS011;13298;48.792;9.154;2023-05-24T10:34:38;7.72;;;3.28;;
25341;SDS011;13298;48.792;9.154;2023-05-24T10:37:06;10.93;;;3.15;;
25341;SDS011;13298;48.792;9.154;2023-05-24T10:39:33;11.20;;;3.63;;
25341;SDS011;13298;48.792;9.154;2023-05-24T10:42:03;13.43;;;3.50;;
25341;SDS011;13298;48.792;9.154;2023-05-24T10:44:33;9.60;;;4.07;;
25341;SDS011;13298;48.792;9.154;2023-05-24T10:47:06;9.23;;;3.38;;
25341;SDS011;13298;48.792;9.154;2023-05-24T10:49:37;8.20;;;3.15;;
25341;SDS011;13298;48.792;9.154;2023-05-24T10:52:15;8.88;;;3.10;;
25341;SDS011;13298;48.792;9.154;2023-05-24T10:55:00;5.82;;;3.05;;
25341;SDS011;13298;48.792;9.154;2023-05-24T10:57:31;13.55;;;3.20;;
25341;SDS011;13298;48.792;9.154;2023-05-24T11:02:49;13.80;;;3.80;;
25341;SDS011;13298;48.792;9.154;2023-05-24T11:05:51;8.88;;;3.13;;
25341;SDS011;13298;48.792;9.154;2023-05-24T11:08:28;8.43;;;3.00;;
25341;SDS011;13298;48.792;9.154;2023-05-24T11:11:11;12.57;;;3.92;;
25341;SDS011;13298;48.792;9.154;2023-05-24T11:13:38;10.52;;;3.55;;
25341;SDS011;13298;48.792;9.154;2023-05-24T11:16:05;10.73;;;3.60;;
25341;SDS011;13298;48.792;9.154;2023-05-24T11:18:31;11.23;;;3.58;;
25341;SDS011;13298;48.792;9.154;2023-05-24T11:21:02;10.80;;;3.17;;
25341;SDS011;13298;48.792;9.154;2023-05-24T11:23:30;9.60;;;3.13;;
25341;SDS011;13298;48.792;9.154;2023-05-24T11:25:56;9.60;;;3.70;;
25341;SDS011;13298;48.792;9.154;2023-05-24T11:28:22;12.23;;;3.78;;
25341;SDS011;13298;48.792;9.154;2023-05-24T11:30:48;7.65;;;3.15;;
25341;SDS011;13298;48.792;9.154;2023-05-24T11:33:21;7.65;;;2.92;;
25341;SDS011;13298;48.792;9.154;2023-05-24T11:35:51;7.70;;;3.40;;
25341;SDS011;13298;48.792;9.154;2023-05-24T11:38:19;8.38;;;3.28;;
25341;SDS011;13298;48.792;9.154;2023-05-24T11:40:46;11.85;;;4.25;;
25341;SDS011;13298;48.792;9.154;2023-05-24T11:43:14;10.70;;;3.72;;
25341;SDS011;13298;48.792;9.154;2023-05-24T11:45:47;14.32;;;3.72;;
25341;SDS011;13298;48.792;9.154;2023-05-24T11:48:14;13.45;;;3.90;;
25341;SDS011;13298;48.792;9.154;2023-05-24T11:50:44;11.82;;;3.53;;
25341;SDS011;13298;48.792;9.154;2023-05-24T11:53:13;11.18;;;3.60;;
25341;SDS011;13298;48.792;9.154;2023-05-24T11:55:41;14.93;;;3.30;;
25341;SDS011;13298;48.792;9.154;2023-05-24T11:58:13;11.65;;;3.50;;
25341;SDS011;13298;48.792;9.154;2023-05-24T12:00:47;13.20;;;3.70;;
25341;SDS011;13298;48.792;9.154;2023-05-24T12:03:13;9.98;;;2.80;;
25341;SDS011;13298;48.792;9.154;2023-05-24T12:05:41;10.82;;;3.33;;
25341;SDS011;13298;48.792;9.154;2023-05-24T12:08:09;10.18;;;2.88;;
25341;SDS011;13298;48.792;9.154;2023-05-24T12:10:38;8.75;;;3.50;;
25341;SDS011;13298;48.792;9.154;2023-05-24T12:13:05;7.53;;;3.58;;
25341;SDS011;13298;48.792;9.154;2023-05-24T12:15:44;11.38;;;3.60;;
25341;SDS011;13298;48.792;9.154;2023-05-24T12:18:19;11.48;;;3.88;;
25341;SDS011;13298;48.792;9.154;2023-05-24T12:20:50;12.52;;;3.72;;
25341;SDS011;13298;48.792;9.154;2023-05-24T12:23:18;6.47;;;3.42;;
25341;SDS011;13298;48.792;9.154;2023-05-24T12:25:47;10.48;;;3.63;;
25341;SDS011;13298;48.792;9.154;2023-05-24T12:28:14;9.02;;;3.25;;
25341;SDS011;13298;48.792;9.154;2023-05-24T12:30:43;12.15;;;3.88;;
25341;SDS011;13298;48.792;9.154;2023-05-24T12:33:09;7.28;;;3.05;;
25341;SDS011;13298;48.792;9.154;2023-05-24T12:35:35;11.52;;;3.33;;
25341;SDS011;13298;48.792;9.154;2023-05-24T12:38:02;12.38;;;3.45;;
25341;SDS011;13298;48.792;9.154;2023-05-24T12:40:31;13.70;;;3.78;;
25341;SDS011;13298;48.792;9.154;2023-05-24T12:42:57;10.05;;;3.30;;
25341;SDS011;13298;48.792;9.154;2023-05-24T12:45:23;11.93;;;3.70;;
25341;SDS011;13298;48.792;9.154;2023-05-24T12:47:55;14.13;;;3.35;;
25341;SDS011;13298;48.792;9.154;2023-05-24T12:50:23;5.75;;;2.90;;
25341;SDS011;13298;48.792;9.154;2023-05-24T12:52:50;7.85;;;3.70;;
25341;SDS011;13298;48.792;9.154;2023-05-24T12:55:17;9.90;;;2.90;;
25341;SDS011;13298;48.792;9.154;2023-05-24T12:57:50;11.00;;;3.10;;
25341;SDS011;13298;48.792;9.154;2023-05-24T13:00:21;8.75;;;3.28;;
25341;SDS011;13298;48.792;9.154;2023-05-24T13:02:52;8.18;;;3.25;;
25341;SDS011;13298;48.792;9.154;2023-05-24T13:05:20;9.20;;;3.42;;
25341;SDS011;13298;48.792;9.154;2023-05-24T13:07:48;11.40;;;3.65;;
25341;SDS011;13298;48.792;9.154;2023-05-24T13:10:15;10.15;;;3.90;;
25341;SDS011;13298;48.792;9.154;2023-05-24T13:12:41;11.13;;;3.17;;
25341;SDS011;13298;48.792;9.154;2023-05-24T13:15:07;8.40;;;3.50;;
25341;SDS011;13298;48.792;9.154;2023-05-24T13:17:34;11.32;;;3.60;;
25341;SDS011;13298;48.792;9.154;2023-05-24T13:20:02;10.48;;;3.05;;
25341;SDS011;13298;48.792;9.154;2023-05-24T13:22:32;10.20;;;3.17;;
25341;SDS011;13298;48.792;9.154;2023-05-24T13:24:59;10.57;;;3.28;;
25341;SDS011;13298;48.792;9.154;2023-05-24T13:27:26;7.55;;;3.00;;
25341;SDS011;13298;48.792;9.154;2023-05-24T13:29:52;7.10;;;2.65;;
25341;SDS011;13298;48.792;9.154;2023-05-24T13:32:18;10.27;;;2.72;;
25341;SDS011;13298;48.792;9.154;2023-05-24T13:34:44;7.43;;;2.75;;
25341;SDS011;13298;48.792;9.154;2023-05-24T13:37:09;7.43;;;3.05;;
25341;SDS011;13298;48.792;9.154;2023-05-24T13:39:36;7.50;;;2.80;;
25341;SDS011;13298;48.792;9.154;2023-05-24T13:42:02;6.30;;;2.40;;
25341;SDS011;13298;48.792;9.154;2023-05-24T13:44:28;7.57;;;2.60;;
25341;SDS011;13298;48.792;9.154;2023-05-24T13:46:54;8.10;;;2.90;;
25341;SDS011;13298;48.792;9.154;2023-05-24T13:49:20;9.13;;;3.20;;
25341;SDS011;13298;48.792;9.154;2023-05-24T13:51:47;7.03;;;2.85;;
25341;SDS011;13298;48.792;9.154;2023-05-24T13:54:13;4.13;;;2.20;;
25341;SDS011;13298;48.792;9.154;2023-05-24T13:56:39;6.28;;;2.00;;
25341;SDS011;13298;48.792;9.154;2023-05-24T13:59:06;9.65;;;2.58;;
25341;SDS011;13298;48.792;9.154;2023-05-24T14:01:32;9.50;;;2.50;;
25341;SDS011;13298;48.792;9.154;2023-05-24T14:04:01;8.52;;;2.78;;
25341;SDS011;13298;48.792;9.154;2023-05-24T14:06:28;7.57;;;2.38;;
25341;SDS011;13298;48.792;9.154;2023-05-24T14:08:55;9.13;;;3.00;;
25341;SDS011;13298;48.792;9.154;2023-05-24T14:11:21;5.72;;;2.53;;
25341;SDS011;13298;48.792;9.154;2023-05-24T14:13:48;7.22;;;2.92;;
25341;SDS011;13298;48.792;9.154;2023-05-24T14:16:14;8.02;;;2.97;;
25341;SDS011;13298;48.792;9.154;2023-05-24T14:18:40;9.63;;;2.53;;
25341;SDS011;13298;48.792;9.154;2023-05-24T14:21:06;11.25;;;3.47;;
25341;SDS011;13298;48.792;9.154;2023-05-24T14:23:32;7.18;;;3.25;;
25341;SDS011;13298;48.792;9.154;2023-05-24T14:25:58;5.75;;;2.58;;
25341;SDS011;13298;48.792;9.154;2023-05-24T14:28:23;5.25;;;2.40;;
25341;SDS011;13298;48.792;9.154;2023-05-24T14:30:49;6.75;;;2.20;;
25341;SDS011;13298;48.792;9.154;2023-05-24T14:33:15;9.02;;;2.60;;
25341;SDS011;13298;48.792;9.154;2023-05-24T14:35:41;9.25;;;2.45;;
25341;SDS011;13298;48.792;9.154;2023-05-24T14:38:08;7.28;;;2.60;;
25341;SDS011;13298;48.792;9.154;2023-05-24T14:40:35;11.00;;;3.15;;
25341;SDS011;13298;48.792;9.154;2023-05-24T14:43:03;6.45;;;2.42;;
25341;SDS011;13298;48.792;9.154;2023-05-24T14:45:35;8.93;;;2.88;;
25341;SDS011;13298;48.792;9.154;2023-05-24T14:48:05;5.90;;;2.65;;
25341;SDS011;13298;48.792;9.154;2023-05-24T14:50:34;8.45;;;2.50;;
25341;SDS011;13298;48.792;9.154;2023-05-24T14:53:00;3.47;;;1.85;;
25341;SDS011;13298;48.792;9.154;2023-05-24T14:55:32;8.07;;;2.70;;
25341;SDS011;13298;48.792;9.154;2023-05-24T14:57:58;6.13;;;2.13;;
25341;SDS011;13298;48.792;9.154;2023-05-24T15:00:24;7.13;;;2.45;;
25341;SDS011;13298;48.792;9.154;2023-05-24T15:02:50;4.78;;;1.90;;
25341;SDS011;13298;48.792;9.154;2023-05-24T15:05:16;5.20;;;2.08;;